createdAt,value
2022-12-31T00:01:28.172Z,10.74
2022-12-31T00:03:55.862Z,10.93
2022-12-31T00:06:26.896Z,11.08
2022-12-31T00:08:55.515Z,11.05
2022-12-31T00:11:24.100Z,11.14
2022-12-31T00:13:51.240Z,11.25
2022-12-31T00:16:27.833Z,11.29
2022-12-31T00:18:59.072Z,11.24
2022-12-31T00:21:27.143Z,11.38
2022-12-31T00:23:53.686Z,11.34
2022-12-31T00:26:22.323Z,11.41
2022-12-31T00:28:49.173Z,11.47
2022-12-31T00:31:20.473Z,11.50
2022-12-31T00:33:47.332Z,11.55
2022-12-31T00:36:16.749Z,11.54
2022-12-31T00:38:45.475Z,11.60
2022-12-31T00:41:13.156Z,11.62
2022-12-31T00:43:40.222Z,11.65
2022-12-31T00:46:08.220Z,11.61
2022-12-31T00:48:35.919Z,11.64
2022-12-31T00:51:03.983Z,11.65
2022-12-31T00:53:30.985Z,11.70
2022-12-31T00:56:05.820Z,11.69
2022-12-31T00:58:33.317Z,11.62
2022-12-31T01:01:08.883Z,11.64
2022-12-31T01:03:35.608Z,11.64
2022-12-31T01:06:02.273Z,11.58
2022-12-31T01:08:28.849Z,11.62
2022-12-31T01:11:21.227Z,11.59
2022-12-31T01:13:51.925Z,11.54
2022-12-31T01:16:23.843Z,11.52
2022-12-31T01:18:51.415Z,11.54
2022-12-31T01:21:19.224Z,11.58
2022-12-31T01:23:45.979Z,11.55
2022-12-31T01:26:15.461Z,11.56
2022-12-31T01:28:41.982Z,11.53
2022-12-31T01:31:13.853Z,11.50
2022-12-31T01:33:42.408Z,11.44
2022-12-31T01:36:14.471Z,11.44
2022-12-31T01:38:42.513Z,11.42
2022-12-31T01:41:14.284Z,11.34
2022-12-31T01:43:54.481Z,11.30
2022-12-31T01:46:28.047Z,11.18
2022-12-31T01:49:00.636Z,11.18
2022-12-31T01:51:31.013Z,11.26
2022-12-31T01:53:58.894Z,11.25
2022-12-31T01:56:26.156Z,11.39
2022-12-31T01:58:56.647Z,11.40
2022-12-31T02:01:31.210Z,11.39
2022-12-31T02:03:59.412Z,11.47
2022-12-31T02:06:46.616Z,11.49
2022-12-31T02:09:13.875Z,11.49
2022-12-31T02:11:40.409Z,11.49
2022-12-31T02:14:15.399Z,11.42
2022-12-31T02:17:00.159Z,11.49
2022-12-31T02:19:45.512Z,11.60
2022-12-31T02:22:33.268Z,11.64
2022-12-31T02:25:26.963Z,11.65
2022-12-31T02:27:53.353Z,11.68
2022-12-31T02:30:23.159Z,11.63
2022-12-31T02:33:02.902Z,11.69
2022-12-31T02:35:49.876Z,11.70
2022-12-31T02:38:32.431Z,11.74
2022-12-31T02:41:00.064Z,11.71
2022-12-31T02:43:27.063Z,11.53
2022-12-31T02:46:20.193Z,11.40
2022-12-31T02:49:01.623Z,11.42
2022-12-31T02:51:30.694Z,11.45
2022-12-31T02:54:03.123Z,11.43
2022-12-31T02:56:43.446Z,11.42
2022-12-31T02:59:37.929Z,11.47
2022-12-31T03:02:16.174Z,11.49
2022-12-31T03:04:52.748Z,11.49
2022-12-31T03:07:23.291Z,11.57
2022-12-31T03:09:50.075Z,11.69
2022-12-31T03:12:37.440Z,11.69
2022-12-31T03:15:06.586Z,11.80
2022-12-31T03:17:34.436Z,11.86
2022-12-31T03:20:19.552Z,11.78
2022-12-31T03:22:46.570Z,11.81
2022-12-31T03:25:54.387Z,11.80
2022-12-31T03:28:23.561Z,11.88
2022-12-31T03:30:53.453Z,11.82
2022-12-31T03:33:21.139Z,11.77
2022-12-31T03:35:49.048Z,11.74
2022-12-31T03:38:16.786Z,11.68
2022-12-31T03:40:49.078Z,11.67
2022-12-31T03:43:15.712Z,11.75
2022-12-31T03:45:42.567Z,11.81
2022-12-31T03:48:10.593Z,11.82
2022-12-31T03:50:37.359Z,11.78
2022-12-31T03:53:04.161Z,11.68
2022-12-31T03:55:31.050Z,11.65
2022-12-31T03:57:57.642Z,11.53
2022-12-31T04:00:24.488Z,11.63
2022-12-31T04:02:51.216Z,11.51
2022-12-31T04:05:19.492Z,11.60
2022-12-31T04:07:46.402Z,11.77
2022-12-31T04:10:15.527Z,11.88
2022-12-31T04:12:42.692Z,11.84
2022-12-31T04:15:11.578Z,11.90
2022-12-31T04:17:38.141Z,11.91
2022-12-31T04:20:05.080Z,11.98
2022-12-31T04:22:31.648Z,11.97
2022-12-31T04:24:58.160Z,11.98
2022-12-31T04:27:24.686Z,11.99
2022-12-31T04:29:51.120Z,11.99
2022-12-31T04:32:17.754Z,11.94
2022-12-31T04:34:44.245Z,11.94
2022-12-31T04:37:10.760Z,11.92
2022-12-31T04:39:37.252Z,11.88
2022-12-31T04:42:03.743Z,11.80
2022-12-31T04:44:31.645Z,11.81
2022-12-31T04:46:58.297Z,11.89
2022-12-31T04:49:24.843Z,11.95
2022-12-31T04:51:51.273Z,12.12
2022-12-31T04:54:17.772Z,12.12
2022-12-31T04:56:44.291Z,12.25
2022-12-31T04:59:11.763Z,12.43
2022-12-31T05:01:39.444Z,12.35
2022-12-31T05:04:06.151Z,12.37
2022-12-31T05:06:32.793Z,12.25
2022-12-31T05:09:01.003Z,12.32
2022-12-31T05:11:27.483Z,12.25
2022-12-31T05:13:53.984Z,12.27
2022-12-31T05:16:20.541Z,12.28
2022-12-31T05:18:47.114Z,12.42
2022-12-31T05:21:20.154Z,12.55
2022-12-31T05:23:47.366Z,12.58
2022-12-31T05:26:13.841Z,12.67
2022-12-31T05:28:40.524Z,12.84
2022-12-31T05:31:07.132Z,12.84
2022-12-31T05:33:33.792Z,12.82
2022-12-31T05:36:00.456Z,12.73
2022-12-31T05:38:26.987Z,12.87
2022-12-31T05:41:19.768Z,12.78
2022-12-31T05:43:46.404Z,12.72
2022-12-31T05:46:12.924Z,12.77
2022-12-31T05:48:39.454Z,12.82
2022-12-31T05:51:06.175Z,12.85
2022-12-31T05:53:34.297Z,12.90
2022-12-31T05:56:00.960Z,12.85
2022-12-31T05:58:27.442Z,12.87
2022-12-31T06:00:54.673Z,12.88
2022-12-31T06:03:21.326Z,12.86
2022-12-31T06:05:48.126Z,12.84
2022-12-31T06:08:14.687Z,12.88
2022-12-31T06:10:41.196Z,12.87
2022-12-31T06:13:08.704Z,12.85
2022-12-31T06:15:41.908Z,12.80
2022-12-31T06:18:08.476Z,12.77
2022-12-31T06:20:38.683Z,12.69
2022-12-31T06:23:05.493Z,12.75
2022-12-31T06:25:32.224Z,12.77
2022-12-31T06:27:59.843Z,12.83
2022-12-31T06:30:26.396Z,12.89
2022-12-31T06:32:52.892Z,12.91
2022-12-31T06:35:19.365Z,12.80
2022-12-31T06:37:46.000Z,12.71
2022-12-31T06:40:13.173Z,12.61
2022-12-31T06:42:39.755Z,12.64
2022-12-31T06:45:06.965Z,12.63
2022-12-31T06:47:33.922Z,12.62
2022-12-31T06:50:00.376Z,12.65
2022-12-31T06:52:26.875Z,12.61
2022-12-31T06:54:53.718Z,12.70
2022-12-31T06:57:20.512Z,12.54
2022-12-31T06:59:47.301Z,12.54
2022-12-31T07:02:16.725Z,12.55
2022-12-31T07:05:26.607Z,12.67
2022-12-31T07:07:59.652Z,12.71
2022-12-31T07:10:31.955Z,12.74
2022-12-31T07:13:01.508Z,12.73
2022-12-31T07:15:56.051Z,12.68
2022-12-31T07:18:47.794Z,12.81
2022-12-31T07:21:16.657Z,12.83
2022-12-31T07:23:43.641Z,12.87
2022-12-31T07:26:30.607Z,12.93
2022-12-31T07:29:11.962Z,12.95
2022-12-31T07:32:03.258Z,13.01
2022-12-31T07:34:57.104Z,13.03
2022-12-31T07:37:55.427Z,13.04
2022-12-31T07:40:33.966Z,13.07
2022-12-31T07:43:03.421Z,13.12
2022-12-31T07:45:47.895Z,13.19
2022-12-31T07:48:23.479Z,13.15
2022-12-31T07:50:51.297Z,13.15
2022-12-31T07:53:18.141Z,13.15
2022-12-31T07:55:44.625Z,13.19
2022-12-31T07:58:37.364Z,13.06
2022-12-31T08:01:04.815Z,13.23
2022-12-31T08:03:34.206Z,13.22
2022-12-31T08:06:10.827Z,13.29
2022-12-31T08:08:58.877Z,13.35
2022-12-31T08:11:44.425Z,13.43
2022-12-31T08:14:13.091Z,13.45
2022-12-31T08:16:39.852Z,13.52
2022-12-31T08:19:06.988Z,13.55
2022-12-31T08:21:46.403Z,13.57
2022-12-31T08:24:18.880Z,13.55
2022-12-31T08:27:00.491Z,13.55
2022-12-31T08:30:09.011Z,13.60
2022-12-31T08:32:45.006Z,13.57
2022-12-31T08:35:14.349Z,13.62
2022-12-31T08:37:51.422Z,13.55
2022-12-31T08:40:38.322Z,13.70
2022-12-31T08:43:23.651Z,13.70
2022-12-31T08:45:52.939Z,13.63
2022-12-31T08:48:40.480Z,13.68
2022-12-31T08:51:17.287Z,13.64
2022-12-31T08:53:44.128Z,13.64
2022-12-31T08:56:26.234Z,13.61
2022-12-31T08:59:19.047Z,13.55
2022-12-31T09:02:13.590Z,13.53
2022-12-31T09:04:40.177Z,13.63
2022-12-31T09:07:09.476Z,13.74
2022-12-31T09:09:55.270Z,13.80
2022-12-31T09:12:25.052Z,13.95
2022-12-31T09:15:04.131Z,14.05
2022-12-31T09:17:46.823Z,14.10
2022-12-31T09:20:36.384Z,14.13
2022-12-31T09:23:08.874Z,14.26
2022-12-31T09:25:44.579Z,14.27
2022-12-31T09:28:16.180Z,14.30
2022-12-31T09:31:21.744Z,14.27
2022-12-31T09:34:00.183Z,14.23
2022-12-31T09:36:34.316Z,14.27
2022-12-31T09:39:16.498Z,14.35
2022-12-31T09:41:45.968Z,14.41
2022-12-31T09:44:31.107Z,14.38
2022-12-31T09:46:57.557Z,14.47
2022-12-31T09:49:51.599Z,14.55
2022-12-31T09:52:37.593Z,14.67
2022-12-31T09:55:26.952Z,14.81
2022-12-31T09:58:47.168Z,14.91
2022-12-31T10:01:50.471Z,14.99
2022-12-31T10:04:34.889Z,15.02
2022-12-31T10:07:48.781Z,15.02
2022-12-31T10:10:23.597Z,15.01
2022-12-31T10:13:16.762Z,15.05
2022-12-31T10:16:01.739Z,15.12
2022-12-31T10:18:46.460Z,15.13
2022-12-31T10:22:08.396Z,15.28
2022-12-31T10:24:59.590Z,15.35
2022-12-31T10:27:54.782Z,15.42
2022-12-31T10:30:23.883Z,15.44
2022-12-31T10:33:32.223Z,15.45
2022-12-31T10:36:23.345Z,15.45
2022-12-31T10:39:22.193Z,15.47
2022-12-31T10:42:27.999Z,15.60
2022-12-31T10:45:16.126Z,15.68
2022-12-31T10:47:48.501Z,15.73
2022-12-31T10:50:52.602Z,15.76
2022-12-31T10:53:45.935Z,15.80
2022-12-31T10:56:24.495Z,15.84
2022-12-31T10:59:09.791Z,15.84
2022-12-31T11:02:07.598Z,15.88
2022-12-31T11:04:59.168Z,15.85
2022-12-31T11:07:54.661Z,15.86
2022-12-31T11:10:58.722Z,15.91
2022-12-31T11:13:57.751Z,15.91
2022-12-31T11:16:37.214Z,15.98
2022-12-31T11:19:19.052Z,16.03
2022-12-31T11:22:22.464Z,16.07
2022-12-31T11:25:20.618Z,16.06
2022-12-31T11:28:16.798Z,16.05
2022-12-31T11:31:14.671Z,16.02
2022-12-31T11:33:59.758Z,16.01
2022-12-31T11:36:42.446Z,16.06
2022-12-31T11:39:14.997Z,16.10
2022-12-31T11:42:13.188Z,16.11
2022-12-31T11:45:01.289Z,16.10
2022-12-31T11:48:27.852Z,16.11
2022-12-31T11:50:50.519Z,16.22
2022-12-31T11:53:41.307Z,16.22
2022-12-31T11:56:21.123Z,16.23
2022-12-31T11:58:51.008Z,16.25
2022-12-31T12:01:22.669Z,16.33
2022-12-31T12:03:49.490Z,16.31
2022-12-31T12:06:20.022Z,16.35
2022-12-31T12:08:47.604Z,16.37
2022-12-31T12:11:27.784Z,16.35
2022-12-31T12:13:54.270Z,16.44
2022-12-31T12:16:25.904Z,16.50
2022-12-31T12:19:18.365Z,16.45
2022-12-31T12:21:47.491Z,16.47
2022-12-31T12:24:30.773Z,16.41
2022-12-31T12:26:57.957Z,16.39
2022-12-31T12:29:29.850Z,16.38
2022-12-31T12:31:58.650Z,16.36
2022-12-31T12:34:28.139Z,16.40
2022-12-31T12:36:54.827Z,16.41
2022-12-31T12:39:26.482Z,16.36
2022-12-31T12:42:15.449Z,16.38
2022-12-31T12:44:42.774Z,16.40
2022-12-31T12:47:15.941Z,16.42
2022-12-31T12:49:46.497Z,16.51
2022-12-31T12:52:33.082Z,16.57
2022-12-31T12:55:18.158Z,16.59
2022-12-31T12:57:51.310Z,16.53
2022-12-31T13:00:31.453Z,16.56
2022-12-31T13:02:58.024Z,16.48
2022-12-31T13:05:57.513Z,16.51
2022-12-31T13:08:27.011Z,16.57
2022-12-31T13:10:53.454Z,16.59
2022-12-31T13:13:29.916Z,16.62
2022-12-31T13:16:25.962Z,16.48
2022-12-31T13:18:58.522Z,16.43
2022-12-31T13:21:28.202Z,16.47
2022-12-31T13:23:59.001Z,16.51
2022-12-31T13:26:30.410Z,16.47
2022-12-31T13:28:58.703Z,16.41
2022-12-31T13:31:32.163Z,16.42
2022-12-31T13:34:04.693Z,16.48
2022-12-31T13:36:34.505Z,16.46
2022-12-31T13:39:05.787Z,16.43
2022-12-31T13:41:39.714Z,16.42
2022-12-31T13:44:27.001Z,16.41
2022-12-31T13:47:12.826Z,16.33
2022-12-31T13:50:26.859Z,16.38
2022-12-31T13:52:58.622Z,16.32
2022-12-31T13:55:41.098Z,16.42
2022-12-31T13:58:19.809Z,16.36
2022-12-31T14:00:58.662Z,16.35
2022-12-31T14:03:52.735Z,16.37
2022-12-31T14:06:32.798Z,16.30
2022-12-31T14:08:59.942Z,16.25
2022-12-31T14:12:04.436Z,16.16
2022-12-31T14:14:50.360Z,16.11
2022-12-31T14:17:33.752Z,16.13
2022-12-31T14:20:38.150Z,16.10
2022-12-31T14:23:19.777Z,16.03
2022-12-31T14:25:49.260Z,16.02
2022-12-31T14:28:21.693Z,16.02
2022-12-31T14:30:53.903Z,15.91
2022-12-31T14:33:29.306Z,15.73
2022-12-31T14:36:27.750Z,15.72
2022-12-31T14:39:04.948Z,15.71
2022-12-31T14:41:56.377Z,15.66
2022-12-31T14:44:31.942Z,15.45
2022-12-31T14:47:21.525Z,15.31
2022-12-31T14:50:14.012Z,15.28
2022-12-31T14:53:08.173Z,15.31
2022-12-31T14:55:36.037Z,15.32
2022-12-31T14:58:28.353Z,15.19
2022-12-31T15:00:59.153Z,15.19
2022-12-31T15:03:31.684Z,15.16
2022-12-31T15:06:31.147Z,15.08
2022-12-31T15:09:18.768Z,15.13
2022-12-31T15:12:03.352Z,14.97
2022-12-31T15:15:07.411Z,14.73
2022-12-31T15:17:50.427Z,14.54
2022-12-31T15:20:35.427Z,14.57
2022-12-31T15:23:02.797Z,14.33
2022-12-31T15:25:40.269Z,14.27
2022-12-31T15:28:26.502Z,14.11
2022-12-31T15:30:56.002Z,14.02
2022-12-31T15:33:31.011Z,13.86
2022-12-31T15:35:58.222Z,13.56
2022-12-31T15:38:34.401Z,13.26
2022-12-31T15:41:12.216Z,13.09
2022-12-31T15:44:00.354Z,12.88
2022-12-31T15:46:31.685Z,12.66
2022-12-31T15:49:07.848Z,12.46
2022-12-31T15:51:46.237Z,12.26
2022-12-31T15:54:44.527Z,11.94
2022-12-31T15:57:34.125Z,11.80
2022-12-31T16:00:05.177Z,11.69
2022-12-31T16:02:31.824Z,11.68
2022-12-31T16:04:58.724Z,11.66
2022-12-31T16:07:28.008Z,11.59
2022-12-31T16:09:58.359Z,11.45
2022-12-31T16:12:33.043Z,11.31
2022-12-31T16:15:01.712Z,11.25
2022-12-31T16:17:31.002Z,11.20
2022-12-31T16:19:58.571Z,11.26
2022-12-31T16:22:39.654Z,11.45
2022-12-31T16:25:29.669Z,11.25
2022-12-31T16:27:55.042Z,10.76
2022-12-31T16:30:27.184Z,10.78
2022-12-31T16:32:57.877Z,10.70
2022-12-31T16:35:27.718Z,10.63
2022-12-31T16:38:21.564Z,10.58
2022-12-31T16:41:03.231Z,10.86
2022-12-31T16:43:38.424Z,10.98
2022-12-31T16:46:19.928Z,10.90
2022-12-31T16:48:54.176Z,10.99
2022-12-31T16:51:25.960Z,10.69
2022-12-31T16:53:52.594Z,10.63
2022-12-31T16:56:24.982Z,10.69
2022-12-31T16:59:00.247Z,10.86
2022-12-31T17:01:31.961Z,11.13
2022-12-31T17:04:02.210Z,11.26
2022-12-31T17:06:32.155Z,11.40
2022-12-31T17:08:59.792Z,11.50
2022-12-31T17:11:39.159Z,11.66
2022-12-31T17:14:05.626Z,11.69
2022-12-31T17:17:01.377Z,11.58
2022-12-31T17:19:45.803Z,11.30
2022-12-31T17:22:31.633Z,11.21
2022-12-31T17:25:07.372Z,11.22
2022-12-31T17:27:35.779Z,11.26
2022-12-31T17:30:28.260Z,11.40
2022-12-31T17:33:13.273Z,11.53
2022-12-31T17:35:42.475Z,11.67
2022-12-31T17:38:18.322Z,11.92
2022-12-31T17:40:51.552Z,12.01
2022-12-31T17:43:20.871Z,12.07
2022-12-31T17:45:50.310Z,12.13
2022-12-31T17:48:19.218Z,12.08
2022-12-31T17:50:51.105Z,12.23
2022-12-31T17:53:18.403Z,12.27
2022-12-31T17:55:47.136Z,12.32
2022-12-31T17:58:32.441Z,12.26
2022-12-31T18:00:59.725Z,12.14
2022-12-31T18:03:26.320Z,12.08
2022-12-31T18:05:52.908Z,12.15
2022-12-31T18:08:19.581Z,12.08
2022-12-31T18:10:46.248Z,11.92
2022-12-31T18:13:23.694Z,11.96
2022-12-31T18:15:50.468Z,11.83
2022-12-31T18:18:25.281Z,11.76
2022-12-31T18:21:02.783Z,11.71
2022-12-31T18:23:35.676Z,11.62
2022-12-31T18:26:02.215Z,11.61
2022-12-31T18:28:28.816Z,11.56
2022-12-31T18:30:55.622Z,11.42
2022-12-31T18:33:24.967Z,11.39
2022-12-31T18:36:10.064Z,11.43
2022-12-31T18:38:37.148Z,11.36
2022-12-31T18:41:04.338Z,11.41
2022-12-31T18:43:31.292Z,11.31
2022-12-31T18:45:58.240Z,11.25
2022-12-31T18:48:25.001Z,11.19
2022-12-31T18:50:51.523Z,11.17
2022-12-31T18:53:21.562Z,11.13
2022-12-31T18:55:50.480Z,11.05
2022-12-31T18:58:17.390Z,10.96
2022-12-31T19:00:44.640Z,10.95
2022-12-31T19:03:27.125Z,10.89
2022-12-31T19:05:53.788Z,10.82
2022-12-31T19:08:22.098Z,10.72
2022-12-31T19:10:50.902Z,10.67
2022-12-31T19:13:20.057Z,10.64
2022-12-31T19:15:49.234Z,10.56
2022-12-31T19:18:16.036Z,10.50
2022-12-31T19:20:42.681Z,10.45
2022-12-31T19:23:18.056Z,10.39
2022-12-31T19:25:45.912Z,10.44
2022-12-31T19:28:21.950Z,10.41
2022-12-31T19:30:48.987Z,10.44
2022-12-31T19:33:16.076Z,10.45
2022-12-31T19:35:43.545Z,10.36
2022-12-31T19:38:19.556Z,10.28
2022-12-31T19:40:46.800Z,10.26
2022-12-31T19:43:15.709Z,10.28
2022-12-31T19:45:43.880Z,10.16
2022-12-31T19:48:12.686Z,10.17
2022-12-31T19:50:42.814Z,10.24
2022-12-31T19:53:12.749Z,10.20
2022-12-31T19:55:40.242Z,10.14
2022-12-31T19:58:07.630Z,10.11
2022-12-31T20:00:34.331Z,9.97
2022-12-31T20:03:01.261Z,9.92
2022-12-31T20:05:28.060Z,9.88
2022-12-31T20:07:54.587Z,9.93
2022-12-31T20:10:21.385Z,10.00
2022-12-31T20:12:47.846Z,9.95
2022-12-31T20:15:14.487Z,9.91
2022-12-31T20:17:41.130Z,9.75
2022-12-31T20:20:11.090Z,9.71
2022-12-31T20:22:37.808Z,9.69
2022-12-31T20:25:04.847Z,9.82
2022-12-31T20:27:31.351Z,9.92
2022-12-31T20:29:57.946Z,10.07
2022-12-31T20:32:24.636Z,10.08
2022-12-31T20:34:51.309Z,10.09
2022-12-31T20:37:17.817Z,10.20
2022-12-31T20:39:44.406Z,10.20
2022-12-31T20:42:11.074Z,10.17
2022-12-31T20:44:37.564Z,10.25
2022-12-31T20:47:04.157Z,10.26
2022-12-31T20:50:09.195Z,10.30
2022-12-31T20:52:17.303Z,10.28
2022-12-31T20:54:43.864Z,10.27
2022-12-31T20:57:10.372Z,10.28
2022-12-31T20:59:36.870Z,10.28
2022-12-31T21:04:50.392Z,10.13
2022-12-31T21:07:16.974Z,10.08
2022-12-31T21:09:43.483Z,10.13
2022-12-31T21:12:48.147Z,10.20
2022-12-31T21:15:14.639Z,10.25
2022-12-31T21:17:41.098Z,10.24
2022-12-31T21:20:08.145Z,10.38
2022-12-31T21:22:34.671Z,10.15
2022-12-31T21:25:02.402Z,9.86
2022-12-31T21:27:29.465Z,9.62
2022-12-31T21:30:20.313Z,9.66
2022-12-31T21:32:42.813Z,9.62
2022-12-31T21:35:40.701Z,9.80
2022-12-31T21:38:00.826Z,9.73
2022-12-31T21:40:28.045Z,9.81
2022-12-31T21:42:54.737Z,9.91
2022-12-31T21:45:21.408Z,10.02
2022-12-31T21:48:06.375Z,9.97
2022-12-31T21:50:33.400Z,9.85
2022-12-31T21:53:00.065Z,9.87
2022-12-31T21:55:45.290Z,10.04
2022-12-31T21:58:28.112Z,10.20
2022-12-31T22:01:28.729Z,10.28
2022-12-31T22:03:55.305Z,10.55
2022-12-31T22:06:23.969Z,10.66
2022-12-31T22:08:53.109Z,10.75
2022-12-31T22:11:21.702Z,10.70
2022-12-31T22:13:48.880Z,10.80
2022-12-31T22:16:16.996Z,10.89
2022-12-31T22:18:44.193Z,11.04
2022-12-31T22:21:19.239Z,11.08
2022-12-31T22:23:48.720Z,11.19
2022-12-31T22:26:17.533Z,11.19
2022-12-31T22:28:45.612Z,11.21
2022-12-31T22:31:24.618Z,11.26
2022-12-31T22:33:51.386Z,11.30
2022-12-31T22:36:20.374Z,11.18
2022-12-31T22:38:47.934Z,11.07
2022-12-31T22:41:16.111Z,10.92
2022-12-31T22:43:46.690Z,10.92
2022-12-31T22:46:25.183Z,10.93
2022-12-31T22:48:53.213Z,10.98
2022-12-31T22:51:20.570Z,11.26
2022-12-31T22:53:47.246Z,11.50
2022-12-31T22:56:17.074Z,11.54
2022-12-31T22:58:44.168Z,11.63
2022-12-31T23:01:19.422Z,11.62
2022-12-31T23:03:47.353Z,11.64
2022-12-31T23:06:14.131Z,11.63
2022-12-31T23:08:40.973Z,11.64
2022-12-31T23:11:09.681Z,11.60
2022-12-31T23:13:58.631Z,11.59
2022-12-31T23:16:46.192Z,11.56
2022-12-31T23:19:32.178Z,11.49
2022-12-31T23:22:17.543Z,11.52
2022-12-31T23:24:44.107Z,11.50
2022-12-31T23:27:11.706Z,11.48
2022-12-31T23:29:46.033Z,11.39
2022-12-31T23:32:14.367Z,11.18
2022-12-31T23:34:40.985Z,11.08
2022-12-31T23:37:07.409Z,11.02
2022-12-31T23:39:34.018Z,10.91
2022-12-31T23:42:00.715Z,10.80
2022-12-31T23:44:28.013Z,10.76
2022-12-31T23:46:54.613Z,10.77
2022-12-31T23:49:21.349Z,10.70
2022-12-31T23:51:48.240Z,10.75
2022-12-31T23:54:15.842Z,10.83
2022-12-31T23:56:42.503Z,10.84
2022-12-31T23:59:11.385Z,10.78
